sensor_id;sensor_type;location;lat;lon;timestamp;P1;durP1;ratioP1;P2;durP2;ratioP2
60014;SDS011;45867;52.480;6.056;2023-01-24T00:00:43;33.33;;;16.30;;
60014;SDS011;45867;52.480;6.056;2023-01-24T00:03:09;29.88;;;16.13;;
60014;SDS011;45867;52.480;6.056;2023-01-24T00:05:40;28.40;;;14.52;;
60014;SDS011;45867;52.480;6.056;2023-01-24T00:08:07;35.17;;;14.82;;
60014;SDS011;45867;52.480;6.056;2023-01-24T00:10:33;27.30;;;13.63;;
60014;SDS011;45867;52.480;6.056;2023-01-24T00:12:59;29.15;;;13.98;;
60014;SDS011;45867;52.480;6.056;2023-01-24T00:15:25;31.63;;;14.13;;
60014;SDS011;45867;52.480;6.056;2023-01-24T00:17:50;29.25;;;14.68;;
60014;SDS011;45867;52.480;6.056;2023-01-24T00:20:16;30.58;;;14.18;;
60014;SDS011;45867;52.480;6.056;2023-01-24T00:22:42;31.80;;;15.30;;
60014;SDS011;45867;52.480;6.056;2023-01-24T00:25:07;30.08;;;13.98;;
60014;SDS011;45867;52.480;6.056;2023-01-24T00:27:33;29.63;;;14.57;;
60014;SDS011;45867;52.480;6.056;2023-01-24T00:30:00;29.83;;;14.55;;
60014;SDS011;45867;52.480;6.056;2023-01-24T00:32:27;24.40;;;13.25;;
60014;SDS011;45867;52.480;6.056;2023-01-24T00:34:52;39.05;;;13.90;;
60014;SDS011;45867;52.480;6.056;2023-01-24T00:37:17;29.55;;;13.90;;
60014;SDS011;45867;52.480;6.056;2023-01-24T00:39:43;30.65;;;13.52;;
60014;SDS011;45867;52.480;6.056;2023-01-24T00:42:08;28.67;;;14.32;;
60014;SDS011;45867;52.480;6.056;2023-01-24T00:44:34;29.75;;;14.32;;
60014;SDS011;45867;52.480;6.056;2023-01-24T00:46:59;28.48;;;13.52;;
60014;SDS011;45867;52.480;6.056;2023-01-24T00:49:25;26.77;;;13.38;;
60014;SDS011;45867;52.480;6.056;2023-01-24T00:51:50;26.77;;;13.25;;
60014;SDS011;45867;52.480;6.056;2023-01-24T00:54:15;27.70;;;14.55;;
60014;SDS011;45867;52.480;6.056;2023-01-24T00:56:41;33.92;;;14.27;;
60014;SDS011;45867;52.480;6.056;2023-01-24T00:59:06;28.45;;;13.63;;
60014;SDS011;45867;52.480;6.056;2023-01-24T01:01:32;28.85;;;14.15;;
60014;SDS011;45867;52.480;6.056;2023-01-24T01:03:57;27.80;;;14.00;;
60014;SDS011;45867;52.480;6.056;2023-01-24T01:06:23;28.05;;;14.20;;
60014;SDS011;45867;52.480;6.056;2023-01-24T01:08:49;29.63;;;13.27;;
60014;SDS011;45867;52.480;6.056;2023-01-24T01:11:15;25.67;;;13.88;;
60014;SDS011;45867;52.480;6.056;2023-01-24T01:13:41;28.60;;;12.68;;
60014;SDS011;45867;52.480;6.056;2023-01-24T01:16:08;26.67;;;13.73;;
60014;SDS011;45867;52.480;6.056;2023-01-24T01:18:36;23.35;;;12.02;;
60014;SDS011;45867;52.480;6.056;2023-01-24T01:21:02;24.73;;;12.55;;
60014;SDS011;45867;52.480;6.056;2023-01-24T01:23:29;26.35;;;13.35;;
60014;SDS011;45867;52.480;6.056;2023-01-24T01:25:58;24.08;;;12.23;;
60014;SDS011;45867;52.480;6.056;2023-01-24T01:28:28;24.65;;;12.23;;
60014;SDS011;45867;52.480;6.056;2023-01-24T01:30:54;24.92;;;12.00;;
60014;SDS011;45867;52.480;6.056;2023-01-24T01:33:21;28.27;;;13.07;;
60014;SDS011;45867;52.480;6.056;2023-01-24T01:35:47;25.45;;;12.50;;
60014;SDS011;45867;52.480;6.056;2023-01-24T01:38:14;29.23;;;11.95;;
60014;SDS011;45867;52.480;6.056;2023-01-24T01:40:40;28.55;;;12.02;;
60014;SDS011;45867;52.480;6.056;2023-01-24T01:43:10;22.95;;;11.25;;
60014;SDS011;45867;52.480;6.056;2023-01-24T01:45:42;20.05;;;10.45;;
60014;SDS011;45867;52.480;6.056;2023-01-24T01:48:19;18.63;;;10.20;;
60014;SDS011;45867;52.480;6.056;2023-01-24T01:50:56;21.45;;;10.93;;
60014;SDS011;45867;52.480;6.056;2023-01-24T01:53:28;27.63;;;10.35;;
60014;SDS011;45867;52.480;6.056;2023-01-24T01:56:06;20.60;;;10.38;;
60014;SDS011;45867;52.480;6.056;2023-01-24T01:58:37;18.63;;;9.27;;
60014;SDS011;45867;52.480;6.056;2023-01-24T02:01:05;19.42;;;9.45;;
60014;SDS011;45867;52.480;6.056;2023-01-24T02:03:39;19.58;;;9.77;;
60014;SDS011;45867;52.480;6.056;2023-01-24T02:06:17;19.23;;;10.52;;
60014;SDS011;45867;52.480;6.056;2023-01-24T02:08:55;19.40;;;9.60;;
60014;SDS011;45867;52.480;6.056;2023-01-24T02:11:21;18.48;;;9.52;;
60014;SDS011;45867;52.480;6.056;2023-01-24T02:14:12;20.20;;;10.95;;
60014;SDS011;45867;52.480;6.056;2023-01-24T02:17:20;17.55;;;8.73;;
60014;SDS011;45867;52.480;6.056;2023-01-24T02:26:10;24.15;;;11.05;;
60014;SDS011;45867;52.480;6.056;2023-01-24T02:28:57;24.40;;;10.80;;
60014;SDS011;45867;52.480;6.056;2023-01-24T02:31:27;18.95;;;10.93;;
60014;SDS011;45867;52.480;6.056;2023-01-24T02:33:53;19.83;;;10.23;;
60014;SDS011;45867;52.480;6.056;2023-01-24T02:38:52;21.70;;;10.98;;
60014;SDS011;45867;52.480;6.056;2023-01-24T02:41:22;27.08;;;12.18;;
60014;SDS011;45867;52.480;6.056;2023-01-24T02:43:53;22.67;;;11.77;;
60014;SDS011;45867;52.480;6.056;2023-01-24T02:46:21;25.17;;;12.77;;
60014;SDS011;45867;52.480;6.056;2023-01-24T02:48:49;22.52;;;12.02;;
60014;SDS011;45867;52.480;6.056;2023-01-24T02:51:15;25.88;;;11.57;;
60014;SDS011;45867;52.480;6.056;2023-01-24T02:53:59;20.02;;;10.55;;
60014;SDS011;45867;52.480;6.056;2023-01-24T02:56:25;24.17;;;12.27;;
60014;SDS011;45867;52.480;6.056;2023-01-24T02:59:09;22.58;;;11.35;;
60014;SDS011;45867;52.480;6.056;2023-01-24T03:01:34;22.42;;;11.60;;
60014;SDS011;45867;52.480;6.056;2023-01-24T03:04:00;24.25;;;12.48;;
60014;SDS011;45867;52.480;6.056;2023-01-24T03:06:25;24.27;;;12.38;;
60014;SDS011;45867;52.480;6.056;2023-01-24T03:08:51;22.92;;;11.07;;
60014;SDS011;45867;52.480;6.056;2023-01-24T03:11:16;22.15;;;11.80;;
60014;SDS011;45867;52.480;6.056;2023-01-24T03:13:41;22.23;;;11.32;;
60014;SDS011;45867;52.480;6.056;2023-01-24T03:16:25;22.42;;;11.20;;
60014;SDS011;45867;52.480;6.056;2023-01-24T03:19:09;20.15;;;10.13;;
60014;SDS011;45867;52.480;6.056;2023-01-24T03:21:53;23.23;;;11.48;;
60014;SDS011;45867;52.480;6.056;2023-01-24T03:24:37;21.52;;;11.27;;
60014;SDS011;45867;52.480;6.056;2023-01-24T03:27:21;27.88;;;12.35;;
60014;SDS011;45867;52.480;6.056;2023-01-24T03:30:06;23.42;;;11.02;;
60014;SDS011;45867;52.480;6.056;2023-01-24T03:32:51;20.83;;;11.45;;
60014;SDS011;45867;52.480;6.056;2023-01-24T03:35:35;26.38;;;12.07;;
60014;SDS011;45867;52.480;6.056;2023-01-24T03:38:00;21.95;;;10.63;;
60014;SDS011;45867;52.480;6.056;2023-01-24T03:40:45;23.58;;;11.65;;
60014;SDS011;45867;52.480;6.056;2023-01-24T03:43:11;18.88;;;9.95;;
60014;SDS011;45867;52.480;6.056;2023-01-24T03:45:37;21.27;;;11.80;;
60014;SDS011;45867;52.480;6.056;2023-01-24T03:48:05;22.42;;;11.70;;
60014;SDS011;45867;52.480;6.056;2023-01-24T03:50:38;20.88;;;11.82;;
60014;SDS011;45867;52.480;6.056;2023-01-24T03:53:24;24.30;;;11.13;;
60014;SDS011;45867;52.480;6.056;2023-01-24T03:55:59;24.73;;;11.93;;
60014;SDS011;45867;52.480;6.056;2023-01-24T03:58:28;21.10;;;10.73;;
60014;SDS011;45867;52.480;6.056;2023-01-24T04:00:54;25.00;;;11.85;;
60014;SDS011;45867;52.480;6.056;2023-01-24T04:03:20;20.50;;;10.48;;
60014;SDS011;45867;52.480;6.056;2023-01-24T04:05:46;20.92;;;10.27;;
60014;SDS011;45867;52.480;6.056;2023-01-24T04:08:13;22.27;;;10.57;;
60014;SDS011;45867;52.480;6.056;2023-01-24T04:10:38;20.73;;;11.02;;
60014;SDS011;45867;52.480;6.056;2023-01-24T04:13:04;21.90;;;10.98;;
60014;SDS011;45867;52.480;6.056;2023-01-24T04:15:30;22.20;;;10.98;;
60014;SDS011;45867;52.480;6.056;2023-01-24T04:17:57;19.30;;;10.95;;
60014;SDS011;45867;52.480;6.056;2023-01-24T04:20:25;24.48;;;11.45;;
60014;SDS011;45867;52.480;6.056;2023-01-24T04:22:52;21.48;;;11.15;;
60014;SDS011;45867;52.480;6.056;2023-01-24T04:25:17;21.77;;;10.25;;
60014;SDS011;45867;52.480;6.056;2023-01-24T04:27:43;22.48;;;10.70;;
60014;SDS011;45867;52.480;6.056;2023-01-24T04:30:09;25.10;;;11.23;;
60014;SDS011;45867;52.480;6.056;2023-01-24T04:32:37;21.40;;;10.85;;
60014;SDS011;45867;52.480;6.056;2023-01-24T04:35:02;23.55;;;10.88;;
60014;SDS011;45867;52.480;6.056;2023-01-24T04:37:29;20.83;;;10.95;;
60014;SDS011;45867;52.480;6.056;2023-01-24T04:39:55;23.48;;;10.88;;
60014;SDS011;45867;52.480;6.056;2023-01-24T04:42:20;20.13;;;10.45;;
60014;SDS011;45867;52.480;6.056;2023-01-24T04:44:46;20.77;;;10.27;;
60014;SDS011;45867;52.480;6.056;2023-01-24T04:47:12;20.77;;;10.80;;
60014;SDS011;45867;52.480;6.056;2023-01-24T04:49:37;20.95;;;10.18;;
60014;SDS011;45867;52.480;6.056;2023-01-24T04:52:02;21.23;;;10.55;;
60014;SDS011;45867;52.480;6.056;2023-01-24T04:54:28;17.50;;;9.57;;
60014;SDS011;45867;52.480;6.056;2023-01-24T04:56:53;21.65;;;10.63;;
60014;SDS011;45867;52.480;6.056;2023-01-24T04:59:19;23.40;;;9.70;;
60014;SDS011;45867;52.480;6.056;2023-01-24T05:01:44;18.70;;;9.77;;
60014;SDS011;45867;52.480;6.056;2023-01-24T05:04:10;18.00;;;9.57;;
60014;SDS011;45867;52.480;6.056;2023-01-24T05:06:36;22.75;;;10.25;;
60014;SDS011;45867;52.480;6.056;2023-01-24T05:09:01;21.88;;;9.98;;
60014;SDS011;45867;52.480;6.056;2023-01-24T05:11:27;21.55;;;10.25;;
60014;SDS011;45867;52.480;6.056;2023-01-24T05:13:52;20.23;;;9.43;;
60014;SDS011;45867;52.480;6.056;2023-01-24T05:16:18;18.95;;;9.38;;
60014;SDS011;45867;52.480;6.056;2023-01-24T05:18:43;20.88;;;10.52;;
60014;SDS011;45867;52.480;6.056;2023-01-24T05:21:13;23.05;;;10.45;;
60014;SDS011;45867;52.480;6.056;2023-01-24T05:23:40;21.50;;;10.77;;
60014;SDS011;45867;52.480;6.056;2023-01-24T05:26:06;22.60;;;10.68;;
60014;SDS011;45867;52.480;6.056;2023-01-24T05:28:32;24.38;;;10.25;;
60014;SDS011;45867;52.480;6.056;2023-01-24T05:30:58;19.02;;;9.68;;
60014;SDS011;45867;52.480;6.056;2023-01-24T05:33:24;20.98;;;10.73;;
60014;SDS011;45867;52.480;6.056;2023-01-24T05:35:56;21.10;;;10.88;;
60014;SDS011;45867;52.480;6.056;2023-01-24T05:38:22;20.40;;;11.00;;
60014;SDS011;45867;52.480;6.056;2023-01-24T05:40:47;22.95;;;11.02;;
60014;SDS011;45867;52.480;6.056;2023-01-24T05:43:13;21.23;;;10.77;;
60014;SDS011;45867;52.480;6.056;2023-01-24T05:45:38;21.83;;;10.40;;
60014;SDS011;45867;52.480;6.056;2023-01-24T05:48:03;20.73;;;10.48;;
60014;SDS011;45867;52.480;6.056;2023-01-24T05:50:29;24.20;;;10.38;;
60014;SDS011;45867;52.480;6.056;2023-01-24T05:52:55;18.60;;;9.43;;
60014;SDS011;45867;52.480;6.056;2023-01-24T05:55:20;18.45;;;10.10;;
60014;SDS011;45867;52.480;6.056;2023-01-24T05:57:45;17.00;;;9.40;;
60014;SDS011;45867;52.480;6.056;2023-01-24T06:00:11;21.77;;;10.13;;
60014;SDS011;45867;52.480;6.056;2023-01-24T06:02:37;20.42;;;9.90;;
60014;SDS011;45867;52.480;6.056;2023-01-24T06:05:02;19.98;;;10.30;;
60014;SDS011;45867;52.480;6.056;2023-01-24T06:07:28;18.75;;;10.48;;
60014;SDS011;45867;52.480;6.056;2023-01-24T06:09:53;20.33;;;10.65;;
60014;SDS011;45867;52.480;6.056;2023-01-24T06:12:18;18.30;;;9.35;;
60014;SDS011;45867;52.480;6.056;2023-01-24T06:14:44;16.90;;;9.45;;
60014;SDS011;45867;52.480;6.056;2023-01-24T06:17:09;18.88;;;10.32;;
60014;SDS011;45867;52.480;6.056;2023-01-24T06:19:35;18.88;;;10.77;;
60014;SDS011;45867;52.480;6.056;2023-01-24T06:22:09;18.92;;;9.93;;
60014;SDS011;45867;52.480;6.056;2023-01-24T06:24:46;21.20;;;10.25;;
60014;SDS011;45867;52.480;6.056;2023-01-24T06:27:12;20.17;;;10.35;;
60014;SDS011;45867;52.480;6.056;2023-01-24T06:29:37;19.65;;;10.35;;
60014;SDS011;45867;52.480;6.056;2023-01-24T06:32:05;20.80;;;10.18;;
60014;SDS011;45867;52.480;6.056;2023-01-24T06:40:03;20.25;;;10.00;;
60014;SDS011;45867;52.480;6.056;2023-01-24T06:42:32;23.52;;;11.13;;
60014;SDS011;45867;52.480;6.056;2023-01-24T06:44:57;19.80;;;10.25;;
60014;SDS011;45867;52.480;6.056;2023-01-24T06:47:23;17.10;;;9.45;;
60014;SDS011;45867;52.480;6.056;2023-01-24T06:49:50;23.23;;;10.63;;
60014;SDS011;45867;52.480;6.056;2023-01-24T06:52:15;19.42;;;10.50;;
60014;SDS011;45867;52.480;6.056;2023-01-24T06:54:40;18.17;;;9.85;;
60014;SDS011;45867;52.480;6.056;2023-01-24T06:57:06;18.55;;;9.40;;
60014;SDS011;45867;52.480;6.056;2023-01-24T06:59:31;16.63;;;9.52;;
60014;SDS011;45867;52.480;6.056;2023-01-24T07:01:57;23.77;;;11.30;;
60014;SDS011;45867;52.480;6.056;2023-01-24T07:04:22;19.88;;;10.60;;
60014;SDS011;45867;52.480;6.056;2023-01-24T07:06:47;22.10;;;11.32;;
60014;SDS011;45867;52.480;6.056;2023-01-24T07:09:17;20.13;;;10.60;;
60014;SDS011;45867;52.480;6.056;2023-01-24T07:11:44;20.70;;;11.52;;
60014;SDS011;45867;52.480;6.056;2023-01-24T07:14:09;22.83;;;10.77;;
60014;SDS011;45867;52.480;6.056;2023-01-24T07:16:34;19.48;;;9.48;;
60014;SDS011;45867;52.480;6.056;2023-01-24T07:19:00;15.18;;;8.38;;
60014;SDS011;45867;52.480;6.056;2023-01-24T07:21:25;21.02;;;10.13;;
60014;SDS011;45867;52.480;6.056;2023-01-24T07:23:51;18.30;;;10.15;;
60014;SDS011;45867;52.480;6.056;2023-01-24T07:26:21;19.77;;;10.70;;
60014;SDS011;45867;52.480;6.056;2023-01-24T07:28:47;19.15;;;10.40;;
60014;SDS011;45867;52.480;6.056;2023-01-24T07:31:12;20.60;;;11.02;;
60014;SDS011;45867;52.480;6.056;2023-01-24T07:33:39;17.08;;;9.55;;
60014;SDS011;45867;52.480;6.056;2023-01-24T07:36:12;21.42;;;11.02;;
60014;SDS011;45867;52.480;6.056;2023-01-24T07:38:39;21.23;;;11.23;;
60014;SDS011;45867;52.480;6.056;2023-01-24T07:41:08;17.13;;;10.48;;
60014;SDS011;45867;52.480;6.056;2023-01-24T07:43:34;19.02;;;11.02;;
60014;SDS011;45867;52.480;6.056;2023-01-24T07:46:04;19.27;;;11.15;;
60014;SDS011;45867;52.480;6.056;2023-01-24T07:48:30;22.50;;;11.70;;
60014;SDS011;45867;52.480;6.056;2023-01-24T07:50:58;20.92;;;10.52;;
60014;SDS011;45867;52.480;6.056;2023-01-24T07:53:25;22.10;;;10.68;;
60014;SDS011;45867;52.480;6.056;2023-01-24T07:55:50;22.40;;;11.65;;
60014;SDS011;45867;52.480;6.056;2023-01-24T07:58:16;22.42;;;11.63;;
60014;SDS011;45867;52.480;6.056;2023-01-24T08:00:41;22.60;;;12.60;;
60014;SDS011;45867;52.480;6.056;2023-01-24T08:03:08;27.60;;;13.15;;
60014;SDS011;45867;52.480;6.056;2023-01-24T08:05:35;17.77;;;10.65;;
60014;SDS011;45867;52.480;6.056;2023-01-24T08:08:01;20.67;;;11.18;;
60014;SDS011;45867;52.480;6.056;2023-01-24T08:10:27;19.88;;;11.50;;
60014;SDS011;45867;52.480;6.056;2023-01-24T08:12:54;20.58;;;11.18;;
60014;SDS011;45867;52.480;6.056;2023-01-24T08:15:20;17.60;;;10.65;;
60014;SDS011;45867;52.480;6.056;2023-01-24T08:17:45;23.35;;;12.60;;
60014;SDS011;45867;52.480;6.056;2023-01-24T08:20:11;26.50;;;13.38;;
60014;SDS011;45867;52.480;6.056;2023-01-24T08:22:37;22.50;;;12.93;;
60014;SDS011;45867;52.480;6.056;2023-01-24T08:25:04;24.60;;;13.40;;
60014;SDS011;45867;52.480;6.056;2023-01-24T08:27:30;27.02;;;13.13;;
60014;SDS011;45867;52.480;6.056;2023-01-24T08:29:56;25.92;;;13.95;;
60014;SDS011;45867;52.480;6.056;2023-01-24T08:32:21;24.52;;;14.35;;
60014;SDS011;45867;52.480;6.056;2023-01-24T08:34:46;25.02;;;14.90;;
60014;SDS011;45867;52.480;6.056;2023-01-24T08:37:12;24.52;;;12.43;;
60014;SDS011;45867;52.480;6.056;2023-01-24T08:39:37;25.25;;;13.90;;
60014;SDS011;45867;52.480;6.056;2023-01-24T08:42:03;27.05;;;14.57;;
60014;SDS011;45867;52.480;6.056;2023-01-24T08:44:29;29.98;;;14.90;;
60014;SDS011;45867;52.480;6.056;2023-01-24T08:46:55;26.73;;;13.63;;
60014;SDS011;45867;52.480;6.056;2023-01-24T08:49:20;24.48;;;13.68;;
60014;SDS011;45867;52.480;6.056;2023-01-24T08:51:45;26.15;;;14.38;;
60014;SDS011;45867;52.480;6.056;2023-01-24T08:54:12;26.33;;;14.73;;
60014;SDS011;45867;52.480;6.056;2023-01-24T08:56:38;27.58;;;14.65;;
60014;SDS011;45867;52.480;6.056;2023-01-24T08:59:04;23.35;;;13.15;;
60014;SDS011;45867;52.480;6.056;2023-01-24T09:01:29;27.05;;;14.43;;
60014;SDS011;45867;52.480;6.056;2023-01-24T09:03:57;18.17;;;9.57;;
60014;SDS011;45867;52.480;6.056;2023-01-24T09:06:24;27.88;;;13.85;;
60014;SDS011;45867;52.480;6.056;2023-01-24T09:08:53;29.33;;;14.82;;
60014;SDS011;45867;52.480;6.056;2023-01-24T09:11:20;29.58;;;15.65;;
60014;SDS011;45867;52.480;6.056;2023-01-24T09:13:46;29.15;;;15.77;;
60014;SDS011;45867;52.480;6.056;2023-01-24T09:16:11;26.17;;;14.70;;
60014;SDS011;45867;52.480;6.056;2023-01-24T09:18:37;29.48;;;14.95;;
60014;SDS011;45867;52.480;6.056;2023-01-24T09:21:02;28.05;;;13.93;;
60014;SDS011;45867;52.480;6.056;2023-01-24T09:23:28;28.52;;;14.32;;
60014;SDS011;45867;52.480;6.056;2023-01-24T09:25:55;30.20;;;13.50;;
60014;SDS011;45867;52.480;6.056;2023-01-24T09:28:20;25.33;;;13.13;;
60014;SDS011;45867;52.480;6.056;2023-01-24T09:30:49;26.00;;;15.85;;
60014;SDS011;45867;52.480;6.056;2023-01-24T09:33:16;28.50;;;15.30;;
60014;SDS011;45867;52.480;6.056;2023-01-24T09:35:42;31.15;;;15.63;;
60014;SDS011;45867;52.480;6.056;2023-01-24T09:38:16;26.70;;;14.75;;
60014;SDS011;45867;52.480;6.056;2023-01-24T09:40:45;29.50;;;14.88;;
60014;SDS011;45867;52.480;6.056;2023-01-24T09:46:04;27.02;;;15.32;;
60014;SDS011;45867;52.480;6.056;2023-01-24T09:48:36;29.10;;;14.73;;
60014;SDS011;45867;52.480;6.056;2023-01-24T09:51:02;25.90;;;14.80;;
60014;SDS011;45867;52.480;6.056;2023-01-24T09:53:40;24.92;;;13.50;;
60014;SDS011;45867;52.480;6.056;2023-01-24T09:56:13;26.25;;;14.20;;
60014;SDS011;45867;52.480;6.056;2023-01-24T10:01:50;26.33;;;15.10;;
60014;SDS011;45867;52.480;6.056;2023-01-24T10:04:21;28.85;;;15.15;;
60014;SDS011;45867;52.480;6.056;2023-01-24T10:09:32;28.15;;;15.82;;
60014;SDS011;45867;52.480;6.056;2023-01-24T10:17:29;28.20;;;14.77;;
60014;SDS011;45867;52.480;6.056;2023-01-24T10:20:22;26.35;;;14.25;;
60014;SDS011;45867;52.480;6.056;2023-01-24T10:23:16;27.10;;;14.57;;
60014;SDS011;45867;52.480;6.056;2023-01-24T10:26:04;28.90;;;14.95;;
60014;SDS011;45867;52.480;6.056;2023-01-24T10:28:40;27.02;;;15.43;;
60014;SDS011;45867;52.480;6.056;2023-01-24T10:31:10;26.65;;;13.88;;
60014;SDS011;45867;52.480;6.056;2023-01-24T10:33:46;26.75;;;14.05;;
60014;SDS011;45867;52.480;6.056;2023-01-24T10:36:19;28.05;;;14.40;;
60014;SDS011;45867;52.480;6.056;2023-01-24T10:38:53;31.52;;;15.43;;
60014;SDS011;45867;52.480;6.056;2023-01-24T10:41:22;24.73;;;14.38;;
60014;SDS011;45867;52.480;6.056;2023-01-24T10:43:51;22.20;;;13.52;;
60014;SDS011;45867;52.480;6.056;2023-01-24T10:49:08;24.08;;;13.48;;
60014;SDS011;45867;52.480;6.056;2023-01-24T10:51:39;29.20;;;15.57;;
60014;SDS011;45867;52.480;6.056;2023-01-24T10:54:04;25.02;;;12.60;;
60014;SDS011;45867;52.480;6.056;2023-01-24T10:56:45;24.88;;;14.13;;
60014;SDS011;45867;52.480;6.056;2023-01-24T10:59:11;27.65;;;15.48;;
60014;SDS011;45867;52.480;6.056;2023-01-24T11:01:43;20.50;;;12.70;;
60014;SDS011;45867;52.480;6.056;2023-01-24T11:04:22;27.38;;;14.73;;
60014;SDS011;45867;52.480;6.056;2023-01-24T11:06:52;28.02;;;14.85;;
60014;SDS011;45867;52.480;6.056;2023-01-24T11:09:21;25.40;;;13.93;;
60014;SDS011;45867;52.480;6.056;2023-01-24T11:11:55;22.95;;;13.13;;
60014;SDS011;45867;52.480;6.056;2023-01-24T11:14:22;23.58;;;14.38;;
60014;SDS011;45867;52.480;6.056;2023-01-24T11:16:51;23.95;;;12.88;;
60014;SDS011;45867;52.480;6.056;2023-01-24T11:19:26;24.92;;;14.27;;
60014;SDS011;45867;52.480;6.056;2023-01-24T11:21:55;29.67;;;14.30;;
60014;SDS011;45867;52.480;6.056;2023-01-24T11:24:26;28.88;;;13.50;;
60014;SDS011;45867;52.480;6.056;2023-01-24T11:26:55;22.15;;;13.05;;
60014;SDS011;45867;52.480;6.056;2023-01-24T11:29:21;23.77;;;12.15;;
60014;SDS011;45867;52.480;6.056;2023-01-24T11:31:48;21.98;;;12.38;;
60014;SDS011;45867;52.480;6.056;2023-01-24T11:37:05;23.38;;;13.25;;
60014;SDS011;45867;52.480;6.056;2023-01-24T11:45:23;24.85;;;13.45;;
60014;SDS011;45867;52.480;6.056;2023-01-24T12:04:38;23.90;;;13.57;;
60014;SDS011;45867;52.480;6.056;2023-01-24T12:19:08;22.23;;;12.45;;
60014;SDS011;45867;52.480;6.056;2023-01-24T12:21:48;20.52;;;11.98;;
60014;SDS011;45867;52.480;6.056;2023-01-24T12:24:24;21.38;;;11.93;;
60014;SDS011;45867;52.480;6.056;2023-01-24T12:26:56;22.85;;;13.23;;
60014;SDS011;45867;52.480;6.056;2023-01-24T12:29:31;23.00;;;12.45;;
60014;SDS011;45867;52.480;6.056;2023-01-24T12:37:20;22.63;;;11.95;;
60014;SDS011;45867;52.480;6.056;2023-01-24T12:39:56;18.15;;;10.82;;
60014;SDS011;45867;52.480;6.056;2023-01-24T12:42:46;22.42;;;12.40;;
60014;SDS011;45867;52.480;6.056;2023-01-24T12:45:16;24.48;;;13.15;;
60014;SDS011;45867;52.480;6.056;2023-01-24T12:56:21;21.55;;;12.30;;
60014;SDS011;45867;52.480;6.056;2023-01-24T12:58:49;19.92;;;11.98;;
60014;SDS011;45867;52.480;6.056;2023-01-24T13:07:12;18.75;;;11.95;;
60014;SDS011;45867;52.480;6.056;2023-01-24T13:12:27;22.65;;;11.63;;
60014;SDS011;45867;52.480;6.056;2023-01-24T13:26:32;23.60;;;12.55;;
60014;SDS011;45867;52.480;6.056;2023-01-24T13:34:20;23.23;;;13.48;;
60014;SDS011;45867;52.480;6.056;2023-01-24T13:36:51;20.02;;;11.77;;
60014;SDS011;45867;52.480;6.056;2023-01-24T13:39:30;23.38;;;12.52;;
60014;SDS011;45867;52.480;6.056;2023-01-24T13:42:02;22.75;;;12.40;;
60014;SDS011;45867;52.480;6.056;2023-01-24T13:44:28;24.90;;;13.43;;
60014;SDS011;45867;52.480;6.056;2023-01-24T13:47:42;24.73;;;13.55;;
60014;SDS011;45867;52.480;6.056;2023-01-24T13:55:01;25.17;;;12.02;;
60014;SDS011;45867;52.480;6.056;2023-01-24T14:00:55;21.52;;;11.93;;
60014;SDS011;45867;52.480;6.056;2023-01-24T14:18:54;24.50;;;12.82;;
60014;SDS011;45867;52.480;6.056;2023-01-24T14:21:24;22.83;;;13.27;;
60014;SDS011;45867;52.480;6.056;2023-01-24T14:23:59;24.65;;;12.73;;
60014;SDS011;45867;52.480;6.056;2023-01-24T14:26:31;22.30;;;12.77;;
60014;SDS011;45867;52.480;6.056;2023-01-24T14:29:02;24.17;;;13.25;;
60014;SDS011;45867;52.480;6.056;2023-01-24T14:31:30;22.60;;;12.68;;
60014;SDS011;45867;52.480;6.056;2023-01-24T14:36:49;24.30;;;12.88;;
60014;SDS011;45867;52.480;6.056;2023-01-24T14:39:25;25.58;;;13.57;;
60014;SDS011;45867;52.480;6.056;2023-01-24T14:41:52;28.35;;;13.45;;
60014;SDS011;45867;52.480;6.056;2023-01-24T14:44:29;19.63;;;11.70;;
60014;SDS011;45867;52.480;6.056;2023-01-24T14:46:58;22.63;;;12.95;;
60014;SDS011;45867;52.480;6.056;2023-01-24T14:49:33;20.05;;;12.10;;
60014;SDS011;45867;52.480;6.056;2023-01-24T14:52:00;23.13;;;12.25;;
60014;SDS011;45867;52.480;6.056;2023-01-24T14:54:27;23.08;;;12.07;;
60014;SDS011;45867;52.480;6.056;2023-01-24T14:56:53;19.90;;;11.70;;
60014;SDS011;45867;52.480;6.056;2023-01-24T14:59:19;19.08;;;11.27;;
60014;SDS011;45867;52.480;6.056;2023-01-24T15:01:53;19.05;;;11.63;;
60014;SDS011;45867;52.480;6.056;2023-01-24T15:04:23;19.63;;;11.25;;
60014;SDS011;45867;52.480;6.056;2023-01-24T15:07:09;20.88;;;12.13;;
60014;SDS011;45867;52.480;6.056;2023-01-24T15:09:40;20.02;;;11.40;;
60014;SDS011;45867;52.480;6.056;2023-01-24T15:12:39;18.05;;;10.52;;
60014;SDS011;45867;52.480;6.056;2023-01-24T15:17:29;22.15;;;11.43;;
60014;SDS011;45867;52.480;6.056;2023-01-24T15:20:00;23.25;;;12.18;;
60014;SDS011;45867;52.480;6.056;2023-01-24T15:22:35;20.17;;;10.95;;
60014;SDS011;45867;52.480;6.056;2023-01-24T15:25:22;22.98;;;12.20;;
60014;SDS011;45867;52.480;6.056;2023-01-24T15:27:51;21.95;;;12.65;;
60014;SDS011;45867;52.480;6.056;2023-01-24T15:30:20;18.95;;;11.40;;
60014;SDS011;45867;52.480;6.056;2023-01-24T15:40:35;22.45;;;12.73;;
60014;SDS011;45867;52.480;6.056;2023-01-24T15:43:11;25.48;;;12.75;;
60014;SDS011;45867;52.480;6.056;2023-01-24T15:46:01;25.67;;;12.68;;
60014;SDS011;45867;52.480;6.056;2023-01-24T15:49:02;24.50;;;13.15;;
60014;SDS011;45867;52.480;6.056;2023-01-24T15:54:33;21.60;;;12.88;;
60014;SDS011;45867;52.480;6.056;2023-01-24T15:57:00;24.45;;;14.45;;
60014;SDS011;45867;52.480;6.056;2023-01-24T15:59:28;33.20;;;15.90;;
60014;SDS011;45867;52.480;6.056;2023-01-24T16:01:54;33.13;;;16.10;;
60014;SDS011;45867;52.480;6.056;2023-01-24T16:04:21;42.30;;;23.10;;
60014;SDS011;45867;52.480;6.056;2023-01-24T16:06:47;33.92;;;17.10;;
60014;SDS011;45867;52.480;6.056;2023-01-24T16:09:13;33.88;;;18.98;;
60014;SDS011;45867;52.480;6.056;2023-01-24T16:11:40;32.63;;;17.88;;
60014;SDS011;45867;52.480;6.056;2023-01-24T16:14:07;32.38;;;17.70;;
60014;SDS011;45867;52.480;6.056;2023-01-24T16:16:39;35.92;;;22.00;;
60014;SDS011;45867;52.480;6.056;2023-01-24T16:19:17;28.70;;;16.35;;
60014;SDS011;45867;52.480;6.056;2023-01-24T16:21:46;29.75;;;16.70;;
60014;SDS011;45867;52.480;6.056;2023-01-24T16:24:11;26.02;;;15.15;;
60014;SDS011;45867;52.480;6.056;2023-01-24T16:26:38;24.73;;;14.07;;
60014;SDS011;45867;52.480;6.056;2023-01-24T16:29:13;25.45;;;15.23;;
60014;SDS011;45867;52.480;6.056;2023-01-24T16:31:40;26.60;;;16.13;;
60014;SDS011;45867;52.480;6.056;2023-01-24T16:34:06;26.10;;;14.10;;
60014;SDS011;45867;52.480;6.056;2023-01-24T16:36:32;27.65;;;16.02;;
60014;SDS011;45867;52.480;6.056;2023-01-24T16:38:58;29.10;;;14.75;;
60014;SDS011;45867;52.480;6.056;2023-01-24T16:41:23;28.63;;;14.65;;
60014;SDS011;45867;52.480;6.056;2023-01-24T16:43:49;27.30;;;15.20;;
60014;SDS011;45867;52.480;6.056;2023-01-24T16:46:16;29.20;;;16.40;;
60014;SDS011;45867;52.480;6.056;2023-01-24T16:48:43;27.17;;;14.55;;
60014;SDS011;45867;52.480;6.056;2023-01-24T16:51:09;25.80;;;14.50;;
60014;SDS011;45867;52.480;6.056;2023-01-24T16:53:35;29.35;;;16.10;;
60014;SDS011;45867;52.480;6.056;2023-01-24T16:56:00;27.83;;;16.42;;
60014;SDS011;45867;52.480;6.056;2023-01-24T16:58:26;26.33;;;15.20;;
60014;SDS011;45867;52.480;6.056;2023-01-24T17:00:51;31.10;;;18.02;;
60014;SDS011;45867;52.480;6.056;2023-01-24T17:03:17;30.88;;;17.92;;